sensor_id;sensor_type;location;lat;lon;timestamp;P1;durP1;ratioP1;P2;durP2;ratioP2
11761;SDS011;5938;47.098;15.474;2023-04-06T00:00:09;9.37;;;3.67;;
11761;SDS011;5938;47.098;15.474;2023-04-06T00:04:13;12.17;;;5.77;;
11761;SDS011;5938;47.098;15.474;2023-04-06T00:08:18;6.40;;;4.60;;
11761;SDS011;5938;47.098;15.474;2023-04-06T00:12:22;5.10;;;4.17;;
11761;SDS011;5938;47.098;15.474;2023-04-06T00:16:27;7.17;;;4.47;;
11761;SDS011;5938;47.098;15.474;2023-04-06T00:20:31;7.20;;;3.77;;
11761;SDS011;5938;47.098;15.474;2023-04-06T00:24:35;5.20;;;4.40;;
11761;SDS011;5938;47.098;15.474;2023-04-06T00:28:39;5.17;;;3.97;;
11761;SDS011;5938;47.098;15.474;2023-04-06T00:32:42;6.37;;;4.70;;
11761;SDS011;5938;47.098;15.474;2023-04-06T00:36:46;5.60;;;3.90;;
11761;SDS011;5938;47.098;15.474;2023-04-06T00:40:50;8.03;;;3.90;;
11761;SDS011;5938;47.098;15.474;2023-04-06T00:44:55;5.70;;;3.73;;
11761;SDS011;5938;47.098;15.474;2023-04-06T00:49:00;5.40;;;4.20;;
11761;SDS011;5938;47.098;15.474;2023-04-06T00:53:03;3.83;;;3.50;;
11761;SDS011;5938;47.098;15.474;2023-04-06T00:57:08;4.93;;;4.03;;
11761;SDS011;5938;47.098;15.474;2023-04-06T01:01:11;5.83;;;4.03;;
11761;SDS011;5938;47.098;15.474;2023-04-06T01:05:15;4.37;;;3.40;;
11761;SDS011;5938;47.098;15.474;2023-04-06T01:09:18;6.00;;;4.17;;
11761;SDS011;5938;47.098;15.474;2023-04-06T01:13:23;6.00;;;3.83;;
11761;SDS011;5938;47.098;15.474;2023-04-06T01:17:26;3.73;;;3.30;;
11761;SDS011;5938;47.098;15.474;2023-04-06T01:21:31;5.00;;;3.77;;
11761;SDS011;5938;47.098;15.474;2023-04-06T01:25:35;5.53;;;3.60;;
11761;SDS011;5938;47.098;15.474;2023-04-06T01:29:38;4.53;;;3.33;;
11761;SDS011;5938;47.098;15.474;2023-04-06T01:33:43;6.83;;;4.57;;
11761;SDS011;5938;47.098;15.474;2023-04-06T01:37:46;6.70;;;3.97;;
11761;SDS011;5938;47.098;15.474;2023-04-06T01:41:51;4.20;;;3.50;;
11761;SDS011;5938;47.098;15.474;2023-04-06T01:45:54;7.00;;;3.37;;
11761;SDS011;5938;47.098;15.474;2023-04-06T01:49:58;7.33;;;4.77;;
11761;SDS011;5938;47.098;15.474;2023-04-06T01:54:01;4.50;;;3.93;;
11761;SDS011;5938;47.098;15.474;2023-04-06T01:58:06;5.73;;;4.20;;
11761;SDS011;5938;47.098;15.474;2023-04-06T02:02:10;4.40;;;4.00;;
11761;SDS011;5938;47.098;15.474;2023-04-06T02:06:14;6.23;;;4.00;;
11761;SDS011;5938;47.098;15.474;2023-04-06T02:10:17;4.47;;;4.07;;
11761;SDS011;5938;47.098;15.474;2023-04-06T02:14:24;7.60;;;4.20;;
11761;SDS011;5938;47.098;15.474;2023-04-06T02:18:29;5.47;;;4.40;;
11761;SDS011;5938;47.098;15.474;2023-04-06T02:22:33;5.00;;;3.80;;
11761;SDS011;5938;47.098;15.474;2023-04-06T02:26:37;6.07;;;4.50;;
11761;SDS011;5938;47.098;15.474;2023-04-06T02:30:42;6.10;;;4.60;;
11761;SDS011;5938;47.098;15.474;2023-04-06T02:34:45;4.13;;;3.73;;
11761;SDS011;5938;47.098;15.474;2023-04-06T02:38:49;8.03;;;4.40;;
11761;SDS011;5938;47.098;15.474;2023-04-06T02:42:53;5.37;;;3.87;;
11761;SDS011;5938;47.098;15.474;2023-04-06T02:46:57;6.17;;;3.80;;
11761;SDS011;5938;47.098;15.474;2023-04-06T02:51:01;4.67;;;3.33;;
11761;SDS011;5938;47.098;15.474;2023-04-06T02:55:05;5.40;;;4.10;;
11761;SDS011;5938;47.098;15.474;2023-04-06T02:59:09;4.93;;;2.20;;
11761;SDS011;5938;47.098;15.474;2023-04-06T03:03:14;5.63;;;4.40;;
11761;SDS011;5938;47.098;15.474;2023-04-06T03:07:17;3.93;;;3.50;;
11761;SDS011;5938;47.098;15.474;2023-04-06T03:11:20;8.50;;;4.20;;
11761;SDS011;5938;47.098;15.474;2023-04-06T03:15:24;6.23;;;3.97;;
11761;SDS011;5938;47.098;15.474;2023-04-06T03:19:29;6.83;;;4.00;;
11761;SDS011;5938;47.098;15.474;2023-04-06T03:23:32;4.83;;;3.50;;
11761;SDS011;5938;47.098;15.474;2023-04-06T03:27:35;8.60;;;4.83;;
11761;SDS011;5938;47.098;15.474;2023-04-06T03:31:39;8.23;;;4.60;;
11761;SDS011;5938;47.098;15.474;2023-04-06T03:35:43;5.47;;;4.73;;
11761;SDS011;5938;47.098;15.474;2023-04-06T03:39:48;6.53;;;3.80;;
11761;SDS011;5938;47.098;15.474;2023-04-06T03:43:52;5.13;;;4.07;;
11761;SDS011;5938;47.098;15.474;2023-04-06T03:47:55;6.90;;;3.57;;
11761;SDS011;5938;47.098;15.474;2023-04-06T03:52:00;7.20;;;3.90;;
11761;SDS011;5938;47.098;15.474;2023-04-06T03:56:04;9.90;;;5.10;;
11761;SDS011;5938;47.098;15.474;2023-04-06T04:00:08;8.10;;;4.13;;
11761;SDS011;5938;47.098;15.474;2023-04-06T04:04:13;5.87;;;4.23;;
11761;SDS011;5938;47.098;15.474;2023-04-06T04:08:24;6.33;;;3.67;;
11761;SDS011;5938;47.098;15.474;2023-04-06T04:12:27;6.40;;;4.73;;
11761;SDS011;5938;47.098;15.474;2023-04-06T04:16:40;4.27;;;2.80;;
11761;SDS011;5938;47.098;15.474;2023-04-06T04:20:43;4.70;;;2.97;;
11761;SDS011;5938;47.098;15.474;2023-04-06T04:24:48;5.33;;;3.10;;
11761;SDS011;5938;47.098;15.474;2023-04-06T04:28:51;6.13;;;4.93;;
11761;SDS011;5938;47.098;15.474;2023-04-06T04:32:54;13.33;;;3.27;;
11761;SDS011;5938;47.098;15.474;2023-04-06T04:36:58;3.93;;;3.37;;
11761;SDS011;5938;47.098;15.474;2023-04-06T04:41:03;7.63;;;4.57;;
11761;SDS011;5938;47.098;15.474;2023-04-06T04:45:07;5.70;;;3.30;;
11761;SDS011;5938;47.098;15.474;2023-04-06T04:49:11;7.10;;;3.53;;
11761;SDS011;5938;47.098;15.474;2023-04-06T04:53:16;4.57;;;3.60;;
11761;SDS011;5938;47.098;15.474;2023-04-06T04:57:21;5.37;;;3.00;;
11761;SDS011;5938;47.098;15.474;2023-04-06T05:01:27;7.60;;;4.00;;
11761;SDS011;5938;47.098;15.474;2023-04-06T05:05:44;6.53;;;4.10;;
11761;SDS011;5938;47.098;15.474;2023-04-06T05:09:47;5.57;;;5.00;;
11761;SDS011;5938;47.098;15.474;2023-04-06T05:13:52;6.70;;;4.37;;
11761;SDS011;5938;47.098;15.474;2023-04-06T05:17:57;6.00;;;3.67;;
11761;SDS011;5938;47.098;15.474;2023-04-06T05:22:01;9.03;;;5.23;;
11761;SDS011;5938;47.098;15.474;2023-04-06T05:26:05;8.97;;;4.83;;
11761;SDS011;5938;47.098;15.474;2023-04-06T05:30:11;5.80;;;3.50;;
11761;SDS011;5938;47.098;15.474;2023-04-06T05:34:15;4.83;;;3.90;;
11761;SDS011;5938;47.098;15.474;2023-04-06T05:38:21;6.33;;;3.73;;
11761;SDS011;5938;47.098;15.474;2023-04-06T05:42:24;7.97;;;4.37;;
11761;SDS011;5938;47.098;15.474;2023-04-06T05:46:29;8.37;;;4.40;;
11761;SDS011;5938;47.098;15.474;2023-04-06T05:50:33;6.70;;;4.47;;
11761;SDS011;5938;47.098;15.474;2023-04-06T05:54:46;10.47;;;4.90;;
11761;SDS011;5938;47.098;15.474;2023-04-06T05:58:50;7.37;;;4.17;;
11761;SDS011;5938;47.098;15.474;2023-04-06T06:02:55;5.23;;;4.73;;
11761;SDS011;5938;47.098;15.474;2023-04-06T06:07:01;7.80;;;5.63;;
11761;SDS011;5938;47.098;15.474;2023-04-06T06:11:20;6.83;;;4.00;;
11761;SDS011;5938;47.098;15.474;2023-04-06T06:15:24;10.97;;;5.97;;
11761;SDS011;5938;47.098;15.474;2023-04-06T06:19:47;7.80;;;4.37;;
11761;SDS011;5938;47.098;15.474;2023-04-06T06:23:50;11.10;;;5.67;;
11761;SDS011;5938;47.098;15.474;2023-04-06T06:27:55;8.47;;;5.90;;
11761;SDS011;5938;47.098;15.474;2023-04-06T06:31:58;9.03;;;6.23;;
11761;SDS011;5938;47.098;15.474;2023-04-06T06:36:04;9.47;;;6.90;;
11761;SDS011;5938;47.098;15.474;2023-04-06T06:40:08;7.87;;;6.23;;
11761;SDS011;5938;47.098;15.474;2023-04-06T06:44:14;8.30;;;6.37;;
11761;SDS011;5938;47.098;15.474;2023-04-06T06:48:18;11.37;;;7.60;;
11761;SDS011;5938;47.098;15.474;2023-04-06T06:52:23;7.20;;;6.50;;
11761;SDS011;5938;47.098;15.474;2023-04-06T06:56:38;9.43;;;5.23;;
11761;SDS011;5938;47.098;15.474;2023-04-06T07:00:42;6.50;;;5.90;;
11761;SDS011;5938;47.098;15.474;2023-04-06T07:04:51;6.27;;;4.93;;
11761;SDS011;5938;47.098;15.474;2023-04-06T07:09:15;13.80;;;4.77;;
11761;SDS011;5938;47.098;15.474;2023-04-06T07:13:18;7.80;;;4.90;;
11761;SDS011;5938;47.098;15.474;2023-04-06T07:17:23;6.83;;;4.40;;
11761;SDS011;5938;47.098;15.474;2023-04-06T07:21:27;8.00;;;4.07;;
11761;SDS011;5938;47.098;15.474;2023-04-06T07:25:32;6.83;;;4.87;;
11761;SDS011;5938;47.098;15.474;2023-04-06T07:29:35;6.90;;;5.03;;
11761;SDS011;5938;47.098;15.474;2023-04-06T07:33:39;6.87;;;4.97;;
11761;SDS011;5938;47.098;15.474;2023-04-06T07:37:42;9.70;;;4.73;;
11761;SDS011;5938;47.098;15.474;2023-04-06T07:41:47;4.73;;;4.23;;
11761;SDS011;5938;47.098;15.474;2023-04-06T07:45:51;11.77;;;5.13;;
11761;SDS011;5938;47.098;15.474;2023-04-06T07:49:55;7.47;;;4.20;;
11761;SDS011;5938;47.098;15.474;2023-04-06T07:53:58;8.13;;;4.50;;
11761;SDS011;5938;47.098;15.474;2023-04-06T07:58:03;10.40;;;4.80;;
11761;SDS011;5938;47.098;15.474;2023-04-06T08:02:09;7.50;;;4.37;;
11761;SDS011;5938;47.098;15.474;2023-04-06T08:06:12;5.70;;;4.80;;
11761;SDS011;5938;47.098;15.474;2023-04-06T08:10:16;5.80;;;4.10;;
11761;SDS011;5938;47.098;15.474;2023-04-06T08:14:20;6.13;;;5.30;;
11761;SDS011;5938;47.098;15.474;2023-04-06T08:18:24;7.93;;;4.80;;
11761;SDS011;5938;47.098;15.474;2023-04-06T08:22:27;5.87;;;4.97;;
11761;SDS011;5938;47.098;15.474;2023-04-06T08:26:31;7.07;;;4.80;;
11761;SDS011;5938;47.098;15.474;2023-04-06T08:30:35;6.87;;;4.63;;
11761;SDS011;5938;47.098;15.474;2023-04-06T08:34:39;5.17;;;4.67;;
11761;SDS011;5938;47.098;15.474;2023-04-06T08:38:43;3.87;;;3.13;;
11761;SDS011;5938;47.098;15.474;2023-04-06T08:42:49;3.60;;;3.30;;
11761;SDS011;5938;47.098;15.474;2023-04-06T08:46:56;6.67;;;4.63;;
11761;SDS011;5938;47.098;15.474;2023-04-06T08:50:59;3.93;;;3.47;;
11761;SDS011;5938;47.098;15.474;2023-04-06T08:55:05;4.47;;;2.87;;
11761;SDS011;5938;47.098;15.474;2023-04-06T08:59:09;3.60;;;3.00;;
11761;SDS011;5938;47.098;15.474;2023-04-06T09:03:16;4.87;;;3.50;;
11761;SDS011;5938;47.098;15.474;2023-04-06T09:07:20;4.30;;;3.77;;
11761;SDS011;5938;47.098;15.474;2023-04-06T09:11:25;5.17;;;2.87;;
11761;SDS011;5938;47.098;15.474;2023-04-06T09:15:28;3.80;;;3.27;;
11761;SDS011;5938;47.098;15.474;2023-04-06T09:19:33;3.50;;;3.20;;
11761;SDS011;5938;47.098;15.474;2023-04-06T09:23:57;3.20;;;2.80;;
11761;SDS011;5938;47.098;15.474;2023-04-06T09:28:02;3.60;;;3.30;;
11761;SDS011;5938;47.098;15.474;2023-04-06T09:32:08;3.83;;;3.43;;
11761;SDS011;5938;47.098;15.474;2023-04-06T09:36:14;3.10;;;2.70;;
11761;SDS011;5938;47.098;15.474;2023-04-06T09:40:19;2.93;;;2.73;;
11761;SDS011;5938;47.098;15.474;2023-04-06T09:44:23;3.73;;;2.90;;
11761;SDS011;5938;47.098;15.474;2023-04-06T09:48:30;2.87;;;2.67;;
11761;SDS011;5938;47.098;15.474;2023-04-06T09:52:40;4.13;;;3.30;;
11761;SDS011;5938;47.098;15.474;2023-04-06T09:56:52;3.50;;;3.10;;
11761;SDS011;5938;47.098;15.474;2023-04-06T10:01:01;4.23;;;3.17;;
11761;SDS011;5938;47.098;15.474;2023-04-06T10:05:09;3.03;;;2.73;;
11761;SDS011;5938;47.098;15.474;2023-04-06T10:09:23;3.20;;;2.87;;
11761;SDS011;5938;47.098;15.474;2023-04-06T10:13:28;2.83;;;2.40;;
11761;SDS011;5938;47.098;15.474;2023-04-06T10:17:32;3.20;;;2.90;;
11761;SDS011;5938;47.098;15.474;2023-04-06T10:21:35;3.83;;;3.37;;
11761;SDS011;5938;47.098;15.474;2023-04-06T10:25:51;3.40;;;3.10;;
11761;SDS011;5938;47.098;15.474;2023-04-06T10:30:00;2.47;;;2.27;;
11761;SDS011;5938;47.098;15.474;2023-04-06T10:34:05;3.97;;;2.80;;
11761;SDS011;5938;47.098;15.474;2023-04-06T10:38:15;4.07;;;2.20;;
11761;SDS011;5938;47.098;15.474;2023-04-06T10:42:25;3.20;;;2.90;;
11761;SDS011;5938;47.098;15.474;2023-04-06T10:46:38;4.07;;;3.30;;
11761;SDS011;5938;47.098;15.474;2023-04-06T10:50:43;3.77;;;2.97;;
11761;SDS011;5938;47.098;15.474;2023-04-06T10:54:48;2.60;;;2.40;;
11761;SDS011;5938;47.098;15.474;2023-04-06T10:58:54;2.70;;;2.50;;
11761;SDS011;5938;47.098;15.474;2023-04-06T11:02:58;6.23;;;3.50;;
11761;SDS011;5938;47.098;15.474;2023-04-06T11:07:03;3.70;;;2.50;;
11761;SDS011;5938;47.098;15.474;2023-04-06T11:11:07;2.83;;;2.63;;
11761;SDS011;5938;47.098;15.474;2023-04-06T11:15:12;2.77;;;2.50;;
11761;SDS011;5938;47.098;15.474;2023-04-06T11:19:16;3.17;;;2.80;;
11761;SDS011;5938;47.098;15.474;2023-04-06T11:23:23;3.00;;;2.57;;
11761;SDS011;5938;47.098;15.474;2023-04-06T11:27:27;3.47;;;2.80;;
11761;SDS011;5938;47.098;15.474;2023-04-06T11:31:38;5.90;;;2.77;;
11761;SDS011;5938;47.098;15.474;2023-04-06T11:35:42;1.80;;;1.70;;
11761;SDS011;5938;47.098;15.474;2023-04-06T11:44:00;3.00;;;2.20;;
11761;SDS011;5938;47.098;15.474;2023-04-06T11:48:05;2.53;;;2.10;;
11761;SDS011;5938;47.098;15.474;2023-04-06T11:52:15;2.50;;;2.30;;
11761;SDS011;5938;47.098;15.474;2023-04-06T11:56:23;4.03;;;1.77;;
11761;SDS011;5938;47.098;15.474;2023-04-06T12:00:27;2.20;;;2.00;;
11761;SDS011;5938;47.098;15.474;2023-04-06T12:04:37;2.03;;;1.83;;
11761;SDS011;5938;47.098;15.474;2023-04-06T12:08:41;2.63;;;2.00;;
11761;SDS011;5938;47.098;15.474;2023-04-06T12:12:44;2.33;;;1.90;;
11761;SDS011;5938;47.098;15.474;2023-04-06T12:16:48;1.67;;;1.57;;
11761;SDS011;5938;47.098;15.474;2023-04-06T12:20:52;2.27;;;2.07;;
11761;SDS011;5938;47.098;15.474;2023-04-06T12:24:55;2.03;;;1.83;;
11761;SDS011;5938;47.098;15.474;2023-04-06T12:28:59;2.70;;;2.17;;
11761;SDS011;5938;47.098;15.474;2023-04-06T12:33:08;2.20;;;2.00;;
11761;SDS011;5938;47.098;15.474;2023-04-06T12:37:13;2.60;;;1.80;;
11761;SDS011;5938;47.098;15.474;2023-04-06T12:41:16;1.90;;;1.80;;
11761;SDS011;5938;47.098;15.474;2023-04-06T12:45:20;1.70;;;1.60;;
11761;SDS011;5938;47.098;15.474;2023-04-06T12:49:23;3.33;;;2.03;;
11761;SDS011;5938;47.098;15.474;2023-04-06T12:53:33;1.93;;;1.83;;
11761;SDS011;5938;47.098;15.474;2023-04-06T12:57:37;2.70;;;1.80;;
11761;SDS011;5938;47.098;15.474;2023-04-06T13:01:42;2.20;;;2.00;;
11761;SDS011;5938;47.098;15.474;2023-04-06T13:05:46;1.67;;;1.57;;
11761;SDS011;5938;47.098;15.474;2023-04-06T13:09:52;2.30;;;2.00;;
11761;SDS011;5938;47.098;15.474;2023-04-06T13:13:55;2.23;;;2.00;;
11761;SDS011;5938;47.098;15.474;2023-04-06T13:17:59;2.20;;;1.97;;
11761;SDS011;5938;47.098;15.474;2023-04-06T13:22:02;2.10;;;1.90;;
11761;SDS011;5938;47.098;15.474;2023-04-06T13:26:07;1.93;;;1.80;;
11761;SDS011;5938;47.098;15.474;2023-04-06T13:30:11;1.60;;;1.50;;
11761;SDS011;5938;47.098;15.474;2023-04-06T13:34:18;1.93;;;1.83;;
11761;SDS011;5938;47.098;15.474;2023-04-06T13:38:21;1.87;;;1.50;;
11761;SDS011;5938;47.098;15.474;2023-04-06T13:42:27;1.73;;;1.63;;
11761;SDS011;5938;47.098;15.474;2023-04-06T13:46:30;2.20;;;1.90;;
11761;SDS011;5938;47.098;15.474;2023-04-06T13:50:34;2.47;;;2.23;;
11761;SDS011;5938;47.098;15.474;2023-04-06T13:54:37;2.07;;;1.87;;
11761;SDS011;5938;47.098;15.474;2023-04-06T13:58:42;3.03;;;1.67;;
11761;SDS011;5938;47.098;15.474;2023-04-06T14:02:46;4.30;;;3.90;;
11761;SDS011;5938;47.098;15.474;2023-04-06T14:06:50;2.40;;;2.20;;
11761;SDS011;5938;47.098;15.474;2023-04-06T14:10:54;3.33;;;3.10;;
11761;SDS011;5938;47.098;15.474;2023-04-06T14:14:59;2.43;;;1.63;;
11761;SDS011;5938;47.098;15.474;2023-04-06T14:19:06;3.03;;;2.73;;
11761;SDS011;5938;47.098;15.474;2023-04-06T14:23:10;2.33;;;2.13;;
11761;SDS011;5938;47.098;15.474;2023-04-06T14:27:13;2.57;;;2.07;;
11761;SDS011;5938;47.098;15.474;2023-04-06T14:31:19;1.67;;;1.57;;
11761;SDS011;5938;47.098;15.474;2023-04-06T14:35:22;1.60;;;1.50;;
11761;SDS011;5938;47.098;15.474;2023-04-06T14:39:26;2.00;;;1.80;;
11761;SDS011;5938;47.098;15.474;2023-04-06T14:43:30;1.70;;;1.60;;
11761;SDS011;5938;47.098;15.474;2023-04-06T14:47:35;3.27;;;2.77;;
11761;SDS011;5938;47.098;15.474;2023-04-06T14:51:39;1.43;;;1.23;;
11761;SDS011;5938;47.098;15.474;2023-04-06T14:55:42;2.07;;;1.87;;
11761;SDS011;5938;47.098;15.474;2023-04-06T14:59:45;3.47;;;3.17;;
11761;SDS011;5938;47.098;15.474;2023-04-06T15:03:50;2.53;;;2.33;;
11761;SDS011;5938;47.098;15.474;2023-04-06T15:07:54;2.50;;;2.30;;
11761;SDS011;5938;47.098;15.474;2023-04-06T15:11:57;4.20;;;3.80;;
11761;SDS011;5938;47.098;15.474;2023-04-06T15:16:01;2.70;;;1.80;;
11761;SDS011;5938;47.098;15.474;2023-04-06T15:20:07;6.40;;;5.90;;
11761;SDS011;5938;47.098;15.474;2023-04-06T15:24:11;2.77;;;1.67;;
11761;SDS011;5938;47.098;15.474;2023-04-06T15:28:14;2.10;;;2.00;;
11761;SDS011;5938;47.098;15.474;2023-04-06T15:32:18;2.20;;;2.00;;
11761;SDS011;5938;47.098;15.474;2023-04-06T15:36:24;1.50;;;1.40;;
11761;SDS011;5938;47.098;15.474;2023-04-06T15:40:30;3.27;;;2.10;;
11761;SDS011;5938;47.098;15.474;2023-04-06T15:44:33;2.50;;;2.30;;
11761;SDS011;5938;47.098;15.474;2023-04-06T15:48:37;3.87;;;1.60;;
11761;SDS011;5938;47.098;15.474;2023-04-06T15:52:44;2.90;;;2.70;;
11761;SDS011;5938;47.098;15.474;2023-04-06T15:56:48;2.50;;;2.30;;
11761;SDS011;5938;47.098;15.474;2023-04-06T16:00:52;1.80;;;1.60;;
11761;SDS011;5938;47.098;15.474;2023-04-06T16:04:55;2.30;;;2.00;;
11761;SDS011;5938;47.098;15.474;2023-04-06T16:09:03;2.93;;;2.40;;
11761;SDS011;5938;47.098;15.474;2023-04-06T16:13:08;2.93;;;1.80;;
11761;SDS011;5938;47.098;15.474;2023-04-06T16:17:11;2.60;;;1.53;;
11761;SDS011;5938;47.098;15.474;2023-04-06T16:21:15;3.13;;;2.80;;
11761;SDS011;5938;47.098;15.474;2023-04-06T16:25:20;10.13;;;8.63;;
11761;SDS011;5938;47.098;15.474;2023-04-06T16:29:25;3.67;;;3.33;;
11761;SDS011;5938;47.098;15.474;2023-04-06T16:33:29;6.57;;;1.83;;
11761;SDS011;5938;47.098;15.474;2023-04-06T16:37:32;5.93;;;3.20;;
11761;SDS011;5938;47.098;15.474;2023-04-06T16:41:38;11.20;;;9.43;;
11761;SDS011;5938;47.098;15.474;2023-04-06T16:45:41;5.70;;;3.57;;
11761;SDS011;5938;47.098;15.474;2023-04-06T16:49:52;2.93;;;2.73;;
11761;SDS011;5938;47.098;15.474;2023-04-06T16:54:06;2.50;;;1.70;;
11761;SDS011;5938;47.098;15.474;2023-04-06T16:58:11;4.17;;;3.07;;
11761;SDS011;5938;47.098;15.474;2023-04-06T17:02:15;2.50;;;2.17;;
11761;SDS011;5938;47.098;15.474;2023-04-06T17:06:18;4.30;;;3.57;;
11761;SDS011;5938;47.098;15.474;2023-04-06T17:10:22;2.80;;;1.80;;
11761;SDS011;5938;47.098;15.474;2023-04-06T17:14:38;1.77;;;1.67;;
11761;SDS011;5938;47.098;15.474;2023-04-06T17:18:42;2.83;;;2.50;;
11761;SDS011;5938;47.098;15.474;2023-04-06T17:22:45;2.47;;;1.90;;
11761;SDS011;5938;47.098;15.474;2023-04-06T17:26:50;3.10;;;2.90;;
11761;SDS011;5938;47.098;15.474;2023-04-06T17:30:54;8.40;;;5.60;;
11761;SDS011;5938;47.098;15.474;2023-04-06T17:34:59;2.83;;;2.17;;
11761;SDS011;5938;47.098;15.474;2023-04-06T17:39:02;4.80;;;4.40;;
11761;SDS011;5938;47.098;15.474;2023-04-06T17:43:06;4.10;;;3.77;;
11761;SDS011;5938;47.098;15.474;2023-04-06T17:47:10;5.90;;;3.87;;
11761;SDS011;5938;47.098;15.474;2023-04-06T17:51:14;2.10;;;1.97;;
11761;SDS011;5938;47.098;15.474;2023-04-06T17:55:19;3.03;;;2.70;;
11761;SDS011;5938;47.098;15.474;2023-04-06T17:59:23;3.60;;;3.27;;
11761;SDS011;5938;47.098;15.474;2023-04-06T18:03:28;3.63;;;2.70;;
11761;SDS011;5938;47.098;15.474;2023-04-06T18:07:32;3.83;;;3.47;;
11761;SDS011;5938;47.098;15.474;2023-04-06T18:11:37;4.30;;;3.90;;
11761;SDS011;5938;47.098;15.474;2023-04-06T18:15:40;2.67;;;2.30;;
11761;SDS011;5938;47.098;15.474;2023-04-06T18:19:45;5.97;;;3.50;;
11761;SDS011;5938;47.098;15.474;2023-04-06T18:23:49;2.70;;;2.50;;
11761;SDS011;5938;47.098;15.474;2023-04-06T18:27:54;6.47;;;5.87;;
11761;SDS011;5938;47.098;15.474;2023-04-06T18:31:57;5.00;;;4.60;;
11761;SDS011;5938;47.098;15.474;2023-04-06T18:36:03;5.27;;;4.77;;
11761;SDS011;5938;47.098;15.474;2023-04-06T18:40:07;2.70;;;2.50;;
11761;SDS011;5938;47.098;15.474;2023-04-06T18:44:31;3.07;;;2.77;;
11761;SDS011;5938;47.098;15.474;2023-04-06T18:48:35;2.70;;;2.50;;
11761;SDS011;5938;47.098;15.474;2023-04-06T18:52:40;4.80;;;3.77;;
11761;SDS011;5938;47.098;15.474;2023-04-06T18:56:45;3.57;;;3.27;;
11761;SDS011;5938;47.098;15.474;2023-04-06T19:00:50;4.80;;;4.40;;
11761;SDS011;5938;47.098;15.474;2023-04-06T19:04:54;2.77;;;2.57;;
11761;SDS011;5938;47.098;15.474;2023-04-06T19:08:59;5.60;;;3.33;;
11761;SDS011;5938;47.098;15.474;2023-04-06T19:13:05;3.17;;;2.20;;
11761;SDS011;5938;47.098;15.474;2023-04-06T19:17:09;3.03;;;2.73;;
11761;SDS011;5938;47.098;15.474;2023-04-06T19:21:13;5.37;;;3.47;;
11761;SDS011;5938;47.098;15.474;2023-04-06T19:25:19;3.37;;;2.10;;
11761;SDS011;5938;47.098;15.474;2023-04-06T19:29:23;3.30;;;3.00;;
11761;SDS011;5938;47.098;15.474;2023-04-06T19:33:27;3.70;;;2.70;;
11761;SDS011;5938;47.098;15.474;2023-04-06T19:37:31;3.10;;;2.60;;
11761;SDS011;5938;47.098;15.474;2023-04-06T19:41:37;3.00;;;2.33;;
11761;SDS011;5938;47.098;15.474;2023-04-06T19:45:42;2.93;;;2.67;;
11761;SDS011;5938;47.098;15.474;2023-04-06T19:49:45;3.53;;;2.90;;
11761;SDS011;5938;47.098;15.474;2023-04-06T19:53:48;6.37;;;3.70;;
11761;SDS011;5938;47.098;15.474;2023-04-06T19:57:53;4.17;;;3.20;;
11761;SDS011;5938;47.098;15.474;2023-04-06T20:02:08;2.73;;;2.53;;
11761;SDS011;5938;47.098;15.474;2023-04-06T20:06:12;4.73;;;3.40;;
11761;SDS011;5938;47.098;15.474;2023-04-06T20:10:19;3.27;;;2.77;;
11761;SDS011;5938;47.098;15.474;2023-04-06T20:14:24;2.83;;;2.50;;
11761;SDS011;5938;47.098;15.474;2023-04-06T20:18:27;18.93;;;9.80;;
11761;SDS011;5938;47.098;15.474;2023-04-06T20:22:32;11.70;;;8.07;;
11761;SDS011;5938;47.098;15.474;2023-04-06T20:26:39;9.40;;;4.30;;
11761;SDS011;5938;47.098;15.474;2023-04-06T20:30:44;6.27;;;4.70;;
11761;SDS011;5938;47.098;15.474;2023-04-06T20:34:52;9.00;;;5.13;;
11761;SDS011;5938;47.098;15.474;2023-04-06T20:38:56;8.80;;;5.37;;
11761;SDS011;5938;47.098;15.474;2023-04-06T20:42:59;5.50;;;3.80;;
11761;SDS011;5938;47.098;15.474;2023-04-06T20:47:07;5.57;;;3.70;;
11761;SDS011;5938;47.098;15.474;2023-04-06T20:51:16;8.10;;;4.63;;
11761;SDS011;5938;47.098;15.474;2023-04-06T20:55:24;7.10;;;4.70;;
11761;SDS011;5938;47.098;15.474;2023-04-06T20:59:28;4.60;;;4.00;;
11761;SDS011;5938;47.098;15.474;2023-04-06T21:03:33;4.87;;;4.07;;
11761;SDS011;5938;47.098;15.474;2023-04-06T21:07:36;5.77;;;5.10;;
11761;SDS011;5938;47.098;15.474;2023-04-06T21:11:40;8.50;;;5.43;;
11761;SDS011;5938;47.098;15.474;2023-04-06T21:15:44;9.73;;;5.87;;
11761;SDS011;5938;47.098;15.474;2023-04-06T21:19:50;6.23;;;5.23;;
11761;SDS011;5938;47.098;15.474;2023-04-06T21:23:53;5.93;;;5.33;;
11761;SDS011;5938;47.098;15.474;2023-04-06T21:27:58;7.47;;;5.00;;
11761;SDS011;5938;47.098;15.474;2023-04-06T21:32:02;9.93;;;6.47;;
11761;SDS011;5938;47.098;15.474;2023-04-06T21:36:07;7.30;;;4.50;;
11761;SDS011;5938;47.098;15.474;2023-04-06T21:40:12;6.77;;;6.10;;
11761;SDS011;5938;47.098;15.474;2023-04-06T21:44:15;12.33;;;6.80;;
11761;SDS011;5938;47.098;15.474;2023-04-06T21:48:19;9.10;;;5.90;;
11761;SDS011;5938;47.098;15.474;2023-04-06T21:52:24;10.40;;;5.83;;
11761;SDS011;5938;47.098;15.474;2023-04-06T21:56:27;12.30;;;6.50;;
11761;SDS011;5938;47.098;15.474;2023-04-06T22:00:30;7.43;;;6.50;;
11761;SDS011;5938;47.098;15.474;2023-04-06T22:04:35;10.77;;;5.73;;
11761;SDS011;5938;47.098;15.474;2023-04-06T22:08:46;8.70;;;5.97;;
11761;SDS011;5938;47.098;15.474;2023-04-06T22:12:49;6.80;;;5.10;;
11761;SDS011;5938;47.098;15.474;2023-04-06T22:17:00;7.30;;;6.03;;
11761;SDS011;5938;47.098;15.474;2023-04-06T22:21:03;13.67;;;7.17;;
11761;SDS011;5938;47.098;15.474;2023-04-06T22:25:09;6.47;;;5.13;;
11761;SDS011;5938;47.098;15.474;2023-04-06T22:29:12;7.33;;;4.73;;
11761;SDS011;5938;47.098;15.474;2023-04-06T22:33:15;9.23;;;4.93;;
11761;SDS011;5938;47.098;15.474;2023-04-06T22:37:19;6.37;;;4.73;;
11761;SDS011;5938;47.098;15.474;2023-04-06T22:41:24;6.20;;;4.50;;
11761;SDS011;5938;47.098;15.474;2023-04-06T22:45:28;6.60;;;5.03;;
11761;SDS011;5938;47.098;15.474;2023-04-06T22:49:32;6.37;;;4.17;;
11761;SDS011;5938;47.098;15.474;2023-04-06T22:53:35;5.83;;;4.67;;
11761;SDS011;5938;47.098;15.474;2023-04-06T22:57:40;6.87;;;4.53;;
11761;SDS011;5938;47.098;15.474;2023-04-06T23:01:43;6.10;;;4.80;;
11761;SDS011;5938;47.098;15.474;2023-04-06T23:05:47;5.17;;;4.77;;
11761;SDS011;5938;47.098;15.474;2023-04-06T23:09:58;8.53;;;4.53;;
11761;SDS011;5938;47.098;15.474;2023-04-06T23:14:03;7.50;;;4.40;;
11761;SDS011;5938;47.098;15.474;2023-04-06T23:18:06;5.27;;;4.07;;
11761;SDS011;5938;47.098;15.474;2023-04-06T23:22:09;6.13;;;5.23;;
11761;SDS011;5938;47.098;15.474;2023-04-06T23:26:15;9.20;;;5.40;;
11761;SDS011;5938;47.098;15.474;2023-04-06T23:30:20;7.47;;;4.80;;
11761;SDS011;5938;47.098;15.474;2023-04-06T23:38:32;5.90;;;4.73;;
11761;SDS011;5938;47.098;15.474;2023-04-06T23:42:36;7.23;;;3.97;;
11761;SDS011;5938;47.098;15.474;2023-04-06T23:46:41;4.63;;;3.87;;
11761;SDS011;5938;47.098;15.474;2023-04-06T23:50:44;5.83;;;4.50;;
11761;SDS011;5938;47.098;15.474;2023-04-06T23:54:48;5.50;;;3.70;;
11761;SDS011;5938;47.098;15.474;2023-04-06T23:58:52;7.17;;;5.07;;
